sensor_id;sensor_type;location;lat;lon;timestamp;P1;durP1;ratioP1;P2;durP2;ratioP2
22774;SDS011;11554;51.106;3.684;2024-02-14T00:00:00;8.60;;;5.80;;
22774;SDS011;11554;51.106;3.684;2024-02-14T00:05:00;8.60;;;5.80;;
22774;SDS011;11554;51.106;3.684;2024-02-14T00:10:00;9.50;;;5.50;;
22774;SDS011;11554;51.106;3.684;2024-02-14T00:15:00;9.50;;;5.50;;
22774;SDS011;11554;51.106;3.684;2024-02-14T00:20:01;8.00;;;5.20;;
22774;SDS011;11554;51.106;3.684;2024-02-14T00:25:00;8.00;;;5.20;;
22774;SDS011;11554;51.106;3.684;2024-02-14T00:30:00;7.50;;;5.10;;
22774;SDS011;11554;51.106;3.684;2024-02-14T00:35:00;7.50;;;5.10;;
22774;SDS011;11554;51.106;3.684;2024-02-14T00:40:00;6.50;;;4.70;;
22774;SDS011;11554;51.106;3.684;2024-02-14T00:45:00;6.50;;;4.70;;
22774;SDS011;11554;51.106;3.684;2024-02-14T00:50:00;8.70;;;5.60;;
22774;SDS011;11554;51.106;3.684;2024-02-14T00:55:00;8.70;;;5.60;;
22774;SDS011;11554;51.106;3.684;2024-02-14T01:00:00;7.60;;;5.20;;
22774;SDS011;11554;51.106;3.684;2024-02-14T01:05:00;7.60;;;5.20;;
22774;SDS011;11554;51.106;3.684;2024-02-14T01:10:00;7.00;;;4.90;;
22774;SDS011;11554;51.106;3.684;2024-02-14T01:15:00;7.00;;;4.90;;
22774;SDS011;11554;51.106;3.684;2024-02-14T01:20:00;7.00;;;4.40;;
22774;SDS011;11554;51.106;3.684;2024-02-14T01:25:00;7.00;;;4.40;;
22774;SDS011;11554;51.106;3.684;2024-02-14T01:30:00;6.40;;;4.20;;
22774;SDS011;11554;51.106;3.684;2024-02-14T01:35:00;6.40;;;4.20;;
22774;SDS011;11554;51.106;3.684;2024-02-14T01:40:00;6.10;;;3.60;;
22774;SDS011;11554;51.106;3.684;2024-02-14T01:45:00;6.10;;;3.60;;
22774;SDS011;11554;51.106;3.684;2024-02-14T01:50:01;5.10;;;3.60;;
22774;SDS011;11554;51.106;3.684;2024-02-14T01:55:01;5.10;;;3.60;;
22774;SDS011;11554;51.106;3.684;2024-02-14T02:00:03;7.40;;;4.60;;
22774;SDS011;11554;51.106;3.684;2024-02-14T02:05:00;7.40;;;4.60;;
22774;SDS011;11554;51.106;3.684;2024-02-14T02:10:00;7.70;;;4.60;;
22774;SDS011;11554;51.106;3.684;2024-02-14T02:15:00;7.70;;;4.60;;
22774;SDS011;11554;51.106;3.684;2024-02-14T02:20:00;8.00;;;4.50;;
22774;SDS011;11554;51.106;3.684;2024-02-14T02:25:00;8.00;;;4.50;;
22774;SDS011;11554;51.106;3.684;2024-02-14T02:30:00;9.20;;;4.60;;
22774;SDS011;11554;51.106;3.684;2024-02-14T02:35:00;9.20;;;4.60;;
22774;SDS011;11554;51.106;3.684;2024-02-14T02:40:00;9.90;;;4.80;;
22774;SDS011;11554;51.106;3.684;2024-02-14T02:45:00;9.90;;;4.80;;
22774;SDS011;11554;51.106;3.684;2024-02-14T02:50:00;7.70;;;4.70;;
22774;SDS011;11554;51.106;3.684;2024-02-14T02:55:00;7.70;;;4.70;;
22774;SDS011;11554;51.106;3.684;2024-02-14T03:00:00;8.80;;;4.80;;
22774;SDS011;11554;51.106;3.684;2024-02-14T03:05:00;8.80;;;4.80;;
22774;SDS011;11554;51.106;3.684;2024-02-14T03:10:00;7.40;;;3.80;;
22774;SDS011;11554;51.106;3.684;2024-02-14T03:15:03;7.40;;;3.80;;
22774;SDS011;11554;51.106;3.684;2024-02-14T03:20:00;7.80;;;4.60;;
22774;SDS011;11554;51.106;3.684;2024-02-14T03:25:00;7.80;;;4.60;;
22774;SDS011;11554;51.106;3.684;2024-02-14T03:30:00;9.00;;;4.90;;
22774;SDS011;11554;51.106;3.684;2024-02-14T03:35:00;9.00;;;4.90;;
22774;SDS011;11554;51.106;3.684;2024-02-14T03:40:00;8.20;;;4.90;;
22774;SDS011;11554;51.106;3.684;2024-02-14T03:45:00;8.20;;;4.90;;
22774;SDS011;11554;51.106;3.684;2024-02-14T03:50:00;9.30;;;4.70;;
22774;SDS011;11554;51.106;3.684;2024-02-14T03:55:01;9.30;;;4.70;;
22774;SDS011;11554;51.106;3.684;2024-02-14T04:00:00;7.80;;;4.70;;
22774;SDS011;11554;51.106;3.684;2024-02-14T04:05:00;7.80;;;4.70;;
22774;SDS011;11554;51.106;3.684;2024-02-14T04:10:00;7.80;;;5.30;;
22774;SDS011;11554;51.106;3.684;2024-02-14T04:15:00;7.80;;;5.30;;
22774;SDS011;11554;51.106;3.684;2024-02-14T04:20:00;8.90;;;5.40;;
22774;SDS011;11554;51.106;3.684;2024-02-14T04:25:00;8.90;;;5.40;;
22774;SDS011;11554;51.106;3.684;2024-02-14T04:30:01;10.20;;;5.60;;
22774;SDS011;11554;51.106;3.684;2024-02-14T04:35:00;10.20;;;5.60;;
22774;SDS011;11554;51.106;3.684;2024-02-14T04:40:00;10.40;;;5.40;;
22774;SDS011;11554;51.106;3.684;2024-02-14T04:45:00;10.40;;;5.40;;
22774;SDS011;11554;51.106;3.684;2024-02-14T04:50:00;9.30;;;5.20;;
22774;SDS011;11554;51.106;3.684;2024-02-14T04:55:00;9.30;;;5.20;;
22774;SDS011;11554;51.106;3.684;2024-02-14T05:00:00;8.20;;;4.70;;
22774;SDS011;11554;51.106;3.684;2024-02-14T05:05:00;8.20;;;4.70;;
22774;SDS011;11554;51.106;3.684;2024-02-14T05:10:00;10.90;;;5.00;;
22774;SDS011;11554;51.106;3.684;2024-02-14T05:15:00;10.90;;;5.00;;
22774;SDS011;11554;51.106;3.684;2024-02-14T05:20:00;14.00;;;5.40;;
22774;SDS011;11554;51.106;3.684;2024-02-14T05:25:00;14.00;;;5.40;;
22774;SDS011;11554;51.106;3.684;2024-02-14T05:30:00;9.80;;;4.50;;
22774;SDS011;11554;51.106;3.684;2024-02-14T05:35:01;9.80;;;4.50;;
22774;SDS011;11554;51.106;3.684;2024-02-14T05:40:00;10.70;;;4.60;;
22774;SDS011;11554;51.106;3.684;2024-02-14T05:45:00;10.70;;;4.60;;
22774;SDS011;11554;51.106;3.684;2024-02-14T05:50:00;7.50;;;4.40;;
22774;SDS011;11554;51.106;3.684;2024-02-14T05:55:00;13.10;;;4.80;;
22774;SDS011;11554;51.106;3.684;2024-02-14T06:00:00;13.10;;;4.80;;
22774;SDS011;11554;51.106;3.684;2024-02-14T06:05:00;9.90;;;4.10;;
22774;SDS011;11554;51.106;3.684;2024-02-14T06:10:00;9.90;;;4.10;;
22774;SDS011;11554;51.106;3.684;2024-02-14T06:15:00;6.10;;;3.50;;
22774;SDS011;11554;51.106;3.684;2024-02-14T06:20:00;6.10;;;3.50;;
22774;SDS011;11554;51.106;3.684;2024-02-14T06:25:00;10.80;;;5.00;;
22774;SDS011;11554;51.106;3.684;2024-02-14T06:30:00;10.80;;;5.00;;
22774;SDS011;11554;51.106;3.684;2024-02-14T06:35:00;16.10;;;4.60;;
22774;SDS011;11554;51.106;3.684;2024-02-14T06:40:00;16.10;;;4.60;;
22774;SDS011;11554;51.106;3.684;2024-02-14T06:45:00;10.10;;;5.00;;
22774;SDS011;11554;51.106;3.684;2024-02-14T06:50:00;10.10;;;5.00;;
22774;SDS011;11554;51.106;3.684;2024-02-14T06:55:00;11.50;;;4.50;;
22774;SDS011;11554;51.106;3.684;2024-02-14T07:00:00;11.50;;;4.50;;
22774;SDS011;11554;51.106;3.684;2024-02-14T07:05:00;11.10;;;4.40;;
22774;SDS011;11554;51.106;3.684;2024-02-14T07:10:00;11.10;;;4.40;;
22774;SDS011;11554;51.106;3.684;2024-02-14T07:15:00;11.90;;;5.40;;
22774;SDS011;11554;51.106;3.684;2024-02-14T07:20:01;11.90;;;5.40;;
22774;SDS011;11554;51.106;3.684;2024-02-14T07:25:00;9.30;;;5.20;;
22774;SDS011;11554;51.106;3.684;2024-02-14T07:30:00;9.30;;;5.20;;
22774;SDS011;11554;51.106;3.684;2024-02-14T07:35:02;10.50;;;5.10;;
22774;SDS011;11554;51.106;3.684;2024-02-14T07:40:00;10.50;;;5.10;;
22774;SDS011;11554;51.106;3.684;2024-02-14T07:45:00;9.30;;;5.20;;
22774;SDS011;11554;51.106;3.684;2024-02-14T07:50:01;9.30;;;5.20;;
22774;SDS011;11554;51.106;3.684;2024-02-14T07:55:00;10.60;;;5.60;;
22774;SDS011;11554;51.106;3.684;2024-02-14T08:00:00;10.60;;;5.60;;
22774;SDS011;11554;51.106;3.684;2024-02-14T08:05:00;12.20;;;5.30;;
22774;SDS011;11554;51.106;3.684;2024-02-14T08:10:00;12.20;;;5.30;;
22774;SDS011;11554;51.106;3.684;2024-02-14T08:15:00;11.70;;;5.70;;
22774;SDS011;11554;51.106;3.684;2024-02-14T08:20:00;11.70;;;5.70;;
22774;SDS011;11554;51.106;3.684;2024-02-14T08:25:00;10.40;;;5.70;;
22774;SDS011;11554;51.106;3.684;2024-02-14T08:30:00;10.40;;;5.70;;
22774;SDS011;11554;51.106;3.684;2024-02-14T08:35:00;9.50;;;6.10;;
22774;SDS011;11554;51.106;3.684;2024-02-14T08:40:00;9.50;;;6.10;;
22774;SDS011;11554;51.106;3.684;2024-02-14T08:45:00;13.50;;;6.50;;
22774;SDS011;11554;51.106;3.684;2024-02-14T08:50:00;13.50;;;6.50;;
22774;SDS011;11554;51.106;3.684;2024-02-14T08:55:00;12.40;;;6.40;;
22774;SDS011;11554;51.106;3.684;2024-02-14T09:00:00;12.40;;;6.40;;
22774;SDS011;11554;51.106;3.684;2024-02-14T09:05:00;12.00;;;6.70;;
22774;SDS011;11554;51.106;3.684;2024-02-14T09:10:00;12.00;;;6.70;;
22774;SDS011;11554;51.106;3.684;2024-02-14T09:15:00;12.90;;;6.50;;
22774;SDS011;11554;51.106;3.684;2024-02-14T09:20:00;12.90;;;6.50;;
22774;SDS011;11554;51.106;3.684;2024-02-14T09:25:00;10.40;;;6.30;;
22774;SDS011;11554;51.106;3.684;2024-02-14T09:30:00;10.40;;;6.30;;
22774;SDS011;11554;51.106;3.684;2024-02-14T09:35:00;10.10;;;5.70;;
22774;SDS011;11554;51.106;3.684;2024-02-14T09:40:00;10.10;;;5.70;;
22774;SDS011;11554;51.106;3.684;2024-02-14T09:45:00;9.40;;;5.60;;
22774;SDS011;11554;51.106;3.684;2024-02-14T09:50:01;9.40;;;5.60;;
22774;SDS011;11554;51.106;3.684;2024-02-14T09:55:00;6.40;;;5.20;;
22774;SDS011;11554;51.106;3.684;2024-02-14T10:00:00;6.40;;;5.20;;
22774;SDS011;11554;51.106;3.684;2024-02-14T10:05:00;8.20;;;5.00;;
22774;SDS011;11554;51.106;3.684;2024-02-14T10:10:05;8.20;;;5.00;;
22774;SDS011;11554;51.106;3.684;2024-02-14T10:15:00;5.70;;;4.50;;
22774;SDS011;11554;51.106;3.684;2024-02-14T10:20:01;5.70;;;4.50;;
22774;SDS011;11554;51.106;3.684;2024-02-14T10:25:00;6.00;;;4.00;;
22774;SDS011;11554;51.106;3.684;2024-02-14T10:30:00;6.00;;;4.00;;
22774;SDS011;11554;51.106;3.684;2024-02-14T10:35:01;6.20;;;4.60;;
22774;SDS011;11554;51.106;3.684;2024-02-14T10:40:01;6.20;;;4.60;;
22774;SDS011;11554;51.106;3.684;2024-02-14T10:45:00;5.90;;;4.10;;
22774;SDS011;11554;51.106;3.684;2024-02-14T10:50:02;5.90;;;4.10;;
22774;SDS011;11554;51.106;3.684;2024-02-14T10:55:03;5.40;;;4.00;;
22774;SDS011;11554;51.106;3.684;2024-02-14T11:00:05;5.40;;;4.00;;
22774;SDS011;11554;51.106;3.684;2024-02-14T11:05:02;5.30;;;3.80;;
22774;SDS011;11554;51.106;3.684;2024-02-14T11:10:04;5.30;;;3.80;;
22774;SDS011;11554;51.106;3.684;2024-02-14T11:15:00;6.30;;;4.50;;
22774;SDS011;11554;51.106;3.684;2024-02-14T11:25:06;7.20;;;4.00;;
22774;SDS011;11554;51.106;3.684;2024-02-14T11:30:00;7.20;;;4.00;;
22774;SDS011;11554;51.106;3.684;2024-02-14T11:35:00;8.20;;;4.60;;
22774;SDS011;11554;51.106;3.684;2024-02-14T11:40:00;8.20;;;4.60;;
22774;SDS011;11554;51.106;3.684;2024-02-14T11:45:00;7.60;;;5.30;;
22774;SDS011;11554;51.106;3.684;2024-02-14T11:50:00;7.60;;;5.30;;
22774;SDS011;11554;51.106;3.684;2024-02-14T11:55:00;10.10;;;5.10;;
22774;SDS011;11554;51.106;3.684;2024-02-14T12:00:00;10.10;;;5.10;;
22774;SDS011;11554;51.106;3.684;2024-02-14T12:05:00;10.40;;;5.50;;
22774;SDS011;11554;51.106;3.684;2024-02-14T12:10:00;10.40;;;5.50;;
22774;SDS011;11554;51.106;3.684;2024-02-14T12:15:01;8.20;;;4.90;;
22774;SDS011;11554;51.106;3.684;2024-02-14T12:20:07;8.20;;;4.90;;
22774;SDS011;11554;51.106;3.684;2024-02-14T12:25:00;9.30;;;4.70;;
22774;SDS011;11554;51.106;3.684;2024-02-14T12:30:03;9.30;;;4.70;;
22774;SDS011;11554;51.106;3.684;2024-02-14T12:35:00;6.90;;;4.60;;
22774;SDS011;11554;51.106;3.684;2024-02-14T12:40:00;6.90;;;4.60;;
22774;SDS011;11554;51.106;3.684;2024-02-14T12:45:00;8.00;;;4.10;;
22774;SDS011;11554;51.106;3.684;2024-02-14T12:50:00;8.00;;;4.10;;
22774;SDS011;11554;51.106;3.684;2024-02-14T12:55:00;6.60;;;4.00;;
22774;SDS011;11554;51.106;3.684;2024-02-14T13:00:00;6.60;;;4.00;;
22774;SDS011;11554;51.106;3.684;2024-02-14T13:05:00;5.80;;;3.60;;
22774;SDS011;11554;51.106;3.684;2024-02-14T13:10:00;5.80;;;3.60;;
22774;SDS011;11554;51.106;3.684;2024-02-14T13:15:00;6.40;;;3.30;;
22774;SDS011;11554;51.106;3.684;2024-02-14T13:20:00;6.40;;;3.30;;
22774;SDS011;11554;51.106;3.684;2024-02-14T13:25:00;7.10;;;3.30;;
22774;SDS011;11554;51.106;3.684;2024-02-14T13:30:00;7.10;;;3.30;;
22774;SDS011;11554;51.106;3.684;2024-02-14T13:35:00;6.40;;;3.00;;
22774;SDS011;11554;51.106;3.684;2024-02-14T13:40:00;6.40;;;3.00;;
22774;SDS011;11554;51.106;3.684;2024-02-14T13:45:00;11.50;;;6.80;;
22774;SDS011;11554;51.106;3.684;2024-02-14T13:50:00;11.50;;;6.80;;
22774;SDS011;11554;51.106;3.684;2024-02-14T13:55:00;6.70;;;3.00;;
22774;SDS011;11554;51.106;3.684;2024-02-14T14:00:00;6.70;;;3.00;;
22774;SDS011;11554;51.106;3.684;2024-02-14T14:05:00;6.60;;;3.20;;
22774;SDS011;11554;51.106;3.684;2024-02-14T14:10:00;6.60;;;3.20;;
22774;SDS011;11554;51.106;3.684;2024-02-14T14:15:00;5.90;;;3.10;;
22774;SDS011;11554;51.106;3.684;2024-02-14T14:20:00;5.90;;;3.10;;
22774;SDS011;11554;51.106;3.684;2024-02-14T14:25:00;6.00;;;3.10;;
22774;SDS011;11554;51.106;3.684;2024-02-14T14:30:00;6.00;;;3.10;;
22774;SDS011;11554;51.106;3.684;2024-02-14T14:35:00;6.50;;;3.30;;
22774;SDS011;11554;51.106;3.684;2024-02-14T14:40:00;6.50;;;3.30;;
22774;SDS011;11554;51.106;3.684;2024-02-14T14:45:00;7.20;;;3.10;;
22774;SDS011;11554;51.106;3.684;2024-02-14T14:50:00;7.20;;;3.10;;
22774;SDS011;11554;51.106;3.684;2024-02-14T14:55:00;6.00;;;2.80;;
22774;SDS011;11554;51.106;3.684;2024-02-14T15:00:00;6.00;;;2.80;;
22774;SDS011;11554;51.106;3.684;2024-02-14T15:05:00;8.00;;;3.40;;
22774;SDS011;11554;51.106;3.684;2024-02-14T15:10:00;8.00;;;3.40;;
22774;SDS011;11554;51.106;3.684;2024-02-14T15:15:01;9.50;;;3.90;;
22774;SDS011;11554;51.106;3.684;2024-02-14T15:20:00;9.50;;;3.90;;
22774;SDS011;11554;51.106;3.684;2024-02-14T15:25:00;9.20;;;4.00;;
22774;SDS011;11554;51.106;3.684;2024-02-14T15:30:00;9.20;;;4.00;;
22774;SDS011;11554;51.106;3.684;2024-02-14T15:35:00;6.60;;;3.50;;
22774;SDS011;11554;51.106;3.684;2024-02-14T15:40:00;6.60;;;3.50;;
22774;SDS011;11554;51.106;3.684;2024-02-14T15:45:00;7.70;;;3.70;;
22774;SDS011;11554;51.106;3.684;2024-02-14T15:50:00;7.70;;;3.70;;
22774;SDS011;11554;51.106;3.684;2024-02-14T15:55:00;7.10;;;3.10;;
22774;SDS011;11554;51.106;3.684;2024-02-14T16:00:01;7.10;;;3.10;;
22774;SDS011;11554;51.106;3.684;2024-02-14T16:05:00;5.70;;;2.80;;
22774;SDS011;11554;51.106;3.684;2024-02-14T16:10:00;5.70;;;2.80;;
22774;SDS011;11554;51.106;3.684;2024-02-14T16:15:00;9.00;;;3.00;;
22774;SDS011;11554;51.106;3.684;2024-02-14T16:20:00;9.00;;;3.00;;
22774;SDS011;11554;51.106;3.684;2024-02-14T16:25:00;7.20;;;3.20;;
22774;SDS011;11554;51.106;3.684;2024-02-14T16:30:00;7.20;;;3.20;;
22774;SDS011;11554;51.106;3.684;2024-02-14T16:35:00;13.00;;;3.60;;
22774;SDS011;11554;51.106;3.684;2024-02-14T16:40:00;13.00;;;3.60;;
22774;SDS011;11554;51.106;3.684;2024-02-14T16:45:00;11.10;;;3.50;;
22774;SDS011;11554;51.106;3.684;2024-02-14T16:50:00;11.10;;;3.50;;
22774;SDS011;11554;51.106;3.684;2024-02-14T16:55:00;12.90;;;5.10;;
22774;SDS011;11554;51.106;3.684;2024-02-14T17:00:00;12.90;;;5.10;;
22774;SDS011;11554;51.106;3.684;2024-02-14T17:05:01;16.90;;;5.80;;
22774;SDS011;11554;51.106;3.684;2024-02-14T17:10:00;16.90;;;5.80;;
22774;SDS011;11554;51.106;3.684;2024-02-14T17:15:00;17.40;;;5.40;;
22774;SDS011;11554;51.106;3.684;2024-02-14T17:20:00;17.40;;;5.40;;
22774;SDS011;11554;51.106;3.684;2024-02-14T17:25:00;10.70;;;3.30;;
22774;SDS011;11554;51.106;3.684;2024-02-14T17:30:00;10.70;;;3.30;;
22774;SDS011;11554;51.106;3.684;2024-02-14T17:35:00;10.50;;;3.40;;
22774;SDS011;11554;51.106;3.684;2024-02-14T17:40:00;10.50;;;3.40;;
22774;SDS011;11554;51.106;3.684;2024-02-14T17:45:00;10.40;;;3.60;;
22774;SDS011;11554;51.106;3.684;2024-02-14T17:50:00;10.40;;;3.60;;
22774;SDS011;11554;51.106;3.684;2024-02-14T17:55:00;10.40;;;3.70;;
22774;SDS011;11554;51.106;3.684;2024-02-14T18:00:00;10.40;;;3.70;;
22774;SDS011;11554;51.106;3.684;2024-02-14T18:05:00;9.50;;;4.60;;
22774;SDS011;11554;51.106;3.684;2024-02-14T18:10:00;9.50;;;4.60;;
22774;SDS011;11554;51.106;3.684;2024-02-14T18:15:00;10.50;;;4.90;;
22774;SDS011;11554;51.106;3.684;2024-02-14T18:20:00;10.50;;;4.90;;
22774;SDS011;11554;51.106;3.684;2024-02-14T18:25:00;10.10;;;4.40;;
22774;SDS011;11554;51.106;3.684;2024-02-14T18:30:00;10.10;;;4.40;;
22774;SDS011;11554;51.106;3.684;2024-02-14T18:35:00;8.90;;;4.20;;
22774;SDS011;11554;51.106;3.684;2024-02-14T18:40:00;8.90;;;4.20;;
22774;SDS011;11554;51.106;3.684;2024-02-14T18:45:00;10.00;;;4.20;;
22774;SDS011;11554;51.106;3.684;2024-02-14T18:50:00;10.00;;;4.20;;
22774;SDS011;11554;51.106;3.684;2024-02-14T18:55:00;8.40;;;4.20;;
22774;SDS011;11554;51.106;3.684;2024-02-14T19:00:00;8.40;;;4.20;;
22774;SDS011;11554;51.106;3.684;2024-02-14T19:05:00;10.50;;;4.70;;
22774;SDS011;11554;51.106;3.684;2024-02-14T19:10:00;10.50;;;4.70;;
22774;SDS011;11554;51.106;3.684;2024-02-14T19:15:00;10.10;;;4.00;;
22774;SDS011;11554;51.106;3.684;2024-02-14T19:20:00;10.10;;;4.00;;
22774;SDS011;11554;51.106;3.684;2024-02-14T19:25:00;9.20;;;3.60;;
22774;SDS011;11554;51.106;3.684;2024-02-14T19:30:00;9.20;;;3.60;;
22774;SDS011;11554;51.106;3.684;2024-02-14T19:35:00;8.40;;;3.60;;
22774;SDS011;11554;51.106;3.684;2024-02-14T19:40:00;8.40;;;3.60;;
22774;SDS011;11554;51.106;3.684;2024-02-14T19:45:00;7.70;;;3.30;;
22774;SDS011;11554;51.106;3.684;2024-02-14T19:50:00;7.70;;;3.30;;
22774;SDS011;11554;51.106;3.684;2024-02-14T19:55:00;8.60;;;4.20;;
22774;SDS011;11554;51.106;3.684;2024-02-14T20:00:00;8.60;;;4.20;;
22774;SDS011;11554;51.106;3.684;2024-02-14T20:05:00;9.50;;;3.90;;
22774;SDS011;11554;51.106;3.684;2024-02-14T20:10:00;9.50;;;3.90;;
22774;SDS011;11554;51.106;3.684;2024-02-14T20:15:00;10.30;;;3.70;;
22774;SDS011;11554;51.106;3.684;2024-02-14T20:20:00;10.30;;;3.70;;
22774;SDS011;11554;51.106;3.684;2024-02-14T20:25:00;10.00;;;4.00;;
22774;SDS011;11554;51.106;3.684;2024-02-14T20:30:00;10.00;;;4.00;;
22774;SDS011;11554;51.106;3.684;2024-02-14T20:35:00;10.80;;;4.00;;
22774;SDS011;11554;51.106;3.684;2024-02-14T20:40:00;10.80;;;4.00;;
22774;SDS011;11554;51.106;3.684;2024-02-14T20:45:00;9.30;;;4.40;;
22774;SDS011;11554;51.106;3.684;2024-02-14T20:50:00;9.30;;;4.40;;
22774;SDS011;11554;51.106;3.684;2024-02-14T20:55:00;15.40;;;5.30;;
22774;SDS011;11554;51.106;3.684;2024-02-14T21:00:00;15.40;;;5.30;;
22774;SDS011;11554;51.106;3.684;2024-02-14T21:05:00;12.90;;;6.50;;
22774;SDS011;11554;51.106;3.684;2024-02-14T21:10:00;12.90;;;6.50;;
22774;SDS011;11554;51.106;3.684;2024-02-14T21:15:00;14.50;;;6.10;;
22774;SDS011;11554;51.106;3.684;2024-02-14T21:20:00;14.50;;;6.10;;
22774;SDS011;11554;51.106;3.684;2024-02-14T21:25:00;10.30;;;5.30;;
22774;SDS011;11554;51.106;3.684;2024-02-14T21:30:00;10.30;;;5.30;;
22774;SDS011;11554;51.106;3.684;2024-02-14T21:35:00;14.90;;;6.20;;
22774;SDS011;11554;51.106;3.684;2024-02-14T21:40:00;14.90;;;6.20;;
22774;SDS011;11554;51.106;3.684;2024-02-14T21:45:00;10.70;;;6.30;;
22774;SDS011;11554;51.106;3.684;2024-02-14T21:50:00;10.70;;;6.30;;
22774;SDS011;11554;51.106;3.684;2024-02-14T21:55:00;11.30;;;6.70;;
22774;SDS011;11554;51.106;3.684;2024-02-14T22:00:00;11.30;;;6.70;;
22774;SDS011;11554;51.106;3.684;2024-02-14T22:05:00;12.20;;;6.40;;
22774;SDS011;11554;51.106;3.684;2024-02-14T22:10:00;12.20;;;6.40;;
22774;SDS011;11554;51.106;3.684;2024-02-14T22:15:00;15.40;;;5.90;;
22774;SDS011;11554;51.106;3.684;2024-02-14T22:20:00;15.40;;;5.90;;
22774;SDS011;11554;51.106;3.684;2024-02-14T22:25:00;10.80;;;5.50;;
22774;SDS011;11554;51.106;3.684;2024-02-14T22:30:00;10.80;;;5.50;;
22774;SDS011;11554;51.106;3.684;2024-02-14T22:35:00;13.10;;;5.70;;
22774;SDS011;11554;51.106;3.684;2024-02-14T22:40:00;13.10;;;5.70;;
22774;SDS011;11554;51.106;3.684;2024-02-14T22:45:00;14.40;;;5.00;;
22774;SDS011;11554;51.106;3.684;2024-02-14T22:50:00;14.40;;;5.00;;
22774;SDS011;11554;51.106;3.684;2024-02-14T22:55:00;13.10;;;4.80;;
22774;SDS011;11554;51.106;3.684;2024-02-14T23:00:00;13.10;;;4.80;;
22774;SDS011;11554;51.106;3.684;2024-02-14T23:05:00;12.80;;;4.70;;
22774;SDS011;11554;51.106;3.684;2024-02-14T23:10:00;12.80;;;4.70;;
22774;SDS011;11554;51.106;3.684;2024-02-14T23:15:00;14.20;;;4.90;;
22774;SDS011;11554;51.106;3.684;2024-02-14T23:20:00;14.20;;;4.90;;
22774;SDS011;11554;51.106;3.684;2024-02-14T23:25:01;14.80;;;4.90;;
22774;SDS011;11554;51.106;3.684;2024-02-14T23:30:00;14.80;;;4.90;;
22774;SDS011;11554;51.106;3.684;2024-02-14T23:35:00;12.40;;;5.00;;
22774;SDS011;11554;51.106;3.684;2024-02-14T23:40:00;12.40;;;5.00;;
22774;SDS011;11554;51.106;3.684;2024-02-14T23:45:00;15.90;;;5.30;;
22774;SDS011;11554;51.106;3.684;2024-02-14T23:50:00;15.90;;;5.30;;
22774;SDS011;11554;51.106;3.684;2024-02-14T23:55:00;13.60;;;4.70;;
